Terminal Aerodrome Forecast
Issued by NWS Cleveland, OH

Home | Current Version | Previous Version | Text Only | Print | Product List | Glossary On
Versions: 1 2 3 4 5 6 7 8 9 10 11 12 13 14 15
000
FTUS41 KCLE 221314 AAA
TAFMFD
TAF AMD
KMFD 221314Z 2213/2312 20009KT P6SM -SHRA BKN015 OVC040
      TEMPO 2213/2214 4SM SHRA BKN005
     FM221500 20007KT P6SM SCT030 OVC040
     FM221800 22010KT P6SM VCTS SCT030CB BKN045
     FM222100 24010KT P6SM SCT030 BKN060
     FM230800 22010KT 6SM BR BKN030
     FM231100 25004KT 6SM BR SCT007 OVC012=

USA.gov is the U.S. government's official web portal to all federal, state and local government web resources and services.